Time;durP1;ratioP1;P1;durP2;ratioP2;P2;SDS_P1;SDS_P2;PMS_P1;PMS_P2;Temp;Humidity;BMP_temperature;BMP_pressure;BME280_temperature;BME280_humidity;BME280_pressure;Samples;Min_cycle;Max_cycle;Signal;HPM_P1;HPM_P2
2021/07/30 00:00:56;;;;;;;17.67;16.47;;;16.30;99.90;;;;;;4995163;28;20454;-68
2021/07/30 00:03:22;;;;;;;18.70;17.00;;;16.20;99.90;;;;;;4995258;28;20541;-69
2021/07/30 00:05:50;;;;;;;18.37;17.00;;;16.20;99.90;;;;;;4995372;28;20885;-68
2021/07/30 00:08:17;;;;;;;19.40;17.93;;;16.20;99.90;;;;;;4995075;28;20537;-68
2021/07/30 00:10:45;;;;;;;18.77;17.30;;;16.10;99.90;;;;;;4994916;28;21278;-69
2021/07/30 00:13:12;;;;;;;18.07;16.90;;;16.10;99.90;;;;;;4994669;28;20455;-68
2021/07/30 00:15:39;;;;;;;18.60;17.37;;;16.10;99.90;;;;;;4995018;28;20521;-68
2021/07/30 00:18:06;;;;;;;18.07;16.93;;;16.10;99.90;;;;;;4994975;28;20482;-69
2021/07/30 00:20:33;;;;;;;18.20;16.80;;;16.10;99.90;;;;;;4994609;28;21013;-70
2021/07/30 00:22:59;;;;;;;18.63;17.30;;;16.10;99.90;;;;;;4994639;28;20497;-69
2021/07/30 00:25:26;;;;;;;17.60;16.53;;;16.00;99.90;;;;;;4994454;28;20467;-70
2021/07/30 00:27:54;;;;;;;18.27;16.80;;;16.00;99.90;;;;;;4994788;28;20454;-70
2021/07/30 00:30:21;;;;;;;18.00;16.90;;;15.90;99.90;;;;;;4994858;28;20462;-70
2021/07/30 00:32:48;;;;;;;19.73;18.07;;;15.90;99.90;;;;;;4994693;28;20868;-69
2021/07/30 00:35:15;;;;;;;19.73;18.53;;;15.90;99.90;;;;;;4994275;28;20462;-71
2021/07/30 00:37:41;;;;;;;19.80;18.20;;;15.90;99.90;;;;;;4994351;28;20574;-68
2021/07/30 00:40:09;;;;;;;21.63;20.23;;;15.90;99.90;;;;;;4994578;28;20935;-69
2021/07/30 00:42:36;;;;;;;19.93;18.63;;;15.80;99.90;;;;;;4994505;28;20450;-70
2021/07/30 00:45:04;;;;;;;19.80;18.50;;;15.80;99.90;;;;;;4994417;28;20822;-69
2021/07/30 00:47:32;;;;;;;19.50;18.13;;;15.80;99.90;;;;;;4994145;28;20504;-70
2021/07/30 00:50:00;;;;;;;19.27;17.90;;;15.80;99.90;;;;;;4994289;28;20610;-70
2021/07/30 00:52:27;;;;;;;19.17;18.07;;;15.70;99.90;;;;;;4993622;28;21344;-70
2021/07/30 00:54:54;;;;;;;18.90;17.50;;;15.70;99.90;;;;;;4994194;28;20458;-69
2021/07/30 00:57:22;;;;;;;18.77;17.47;;;15.70;99.90;;;;;;4994200;28;20509;-70
2021/07/30 00:59:49;;;;;;;19.43;18.33;;;15.60;99.90;;;;;;4994117;28;20521;-70
2021/07/30 01:02:18;;;;;;;19.47;18.27;;;15.60;99.90;;;;;;4993906;28;20513;-69
2021/07/30 01:04:44;;;;;;;20.27;18.97;;;15.60;99.90;;;;;;4993929;28;20680;-69
2021/07/30 01:07:11;;;;;;;20.73;19.33;;;15.60;99.90;;;;;;4993891;28;20450;-70
2021/07/30 01:09:38;;;;;;;20.17;18.90;;;15.60;99.90;;;;;;4994025;28;20478;-70
2021/07/30 01:12:07;;;;;;;19.53;18.33;;;15.60;99.90;;;;;;4994115;28;20451;-70
2021/07/30 01:14:34;;;;;;;18.73;17.67;;;15.60;99.90;;;;;;4993662;28;20490;-70
2021/07/30 01:17:00;;;;;;;18.97;17.77;;;15.60;99.90;;;;;;4993671;28;20959;-69
2021/07/30 01:19:29;;;;;;;19.73;18.27;;;15.50;99.90;;;;;;4993520;28;21015;-68
2021/07/30 01:21:56;;;;;;;20.47;19.17;;;15.50;99.90;;;;;;4993371;28;20482;-69
2021/07/30 01:24:26;;;;;;;20.17;18.60;;;15.50;99.90;;;;;;4993620;28;20463;-70
2021/07/30 01:26:53;;;;;;;20.40;18.80;;;15.50;99.90;;;;;;4993835;28;20478;-69
2021/07/30 01:29:21;;;;;;;20.47;19.03;;;15.50;99.90;;;;;;4993546;28;20549;-70
2021/07/30 01:31:48;;;;;;;18.77;17.63;;;15.50;99.90;;;;;;4993679;28;20460;-69
2021/07/30 01:34:15;;;;;;;18.60;17.60;;;15.50;99.90;;;;;;4993618;28;20457;-69
2021/07/30 01:36:42;;;;;;;20.23;18.83;;;15.50;99.90;;;;;;4993180;28;20451;-69
2021/07/30 01:39:08;;;;;;;20.73;19.40;;;15.50;99.90;;;;;;4993429;28;20485;-69
2021/07/30 01:41:36;;;;;;;20.27;18.87;;;15.50;99.90;;;;;;4993732;28;21098;-70
2021/07/30 01:44:04;;;;;;;20.60;19.30;;;15.40;99.90;;;;;;4993216;28;20458;-69
2021/07/30 01:46:30;;;;;;;20.53;19.33;;;15.40;99.90;;;;;;4993357;28;20618;-70
2021/07/30 01:48:57;;;;;;;21.27;19.60;;;15.40;99.90;;;;;;4993232;28;20938;-70
2021/07/30 01:51:24;;;;;;;20.93;19.50;;;15.40;99.90;;;;;;4992998;28;20459;-71
2021/07/30 01:53:50;;;;;;;21.57;19.60;;;15.40;99.90;;;;;;4993293;28;20874;-71
2021/07/30 01:56:17;;;;;;;20.20;19.00;;;15.40;99.90;;;;;;4993059;28;20562;-69
2021/07/30 01:58:45;;;;;;;19.97;18.70;;;15.40;99.90;;;;;;4992809;28;20513;-69
2021/07/30 02:01:12;;;;;;;20.60;19.10;;;15.30;99.90;;;;;;4992767;28;20542;-69
2021/07/30 02:03:39;;;;;;;22.03;20.63;;;15.30;99.90;;;;;;4992260;28;20451;-69
2021/07/30 02:06:09;;;;;;;20.50;19.20;;;15.30;99.90;;;;;;4993064;28;20455;-69
2021/07/30 02:08:36;;;;;;;21.13;19.50;;;15.30;99.90;;;;;;4992939;28;20454;-69
2021/07/30 02:11:08;;;;;;;21.17;19.87;;;15.30;99.90;;;;;;4992826;28;20455;-69
2021/07/30 02:16:21;;;;;;;21.67;20.20;;;15.20;99.90;;;;;;4992749;28;20438;-69
2021/07/30 02:18:48;;;;;;;20.20;19.00;;;15.20;99.90;;;;;;4992675;28;20845;-69
2021/07/30 02:21:15;;;;;;;21.27;19.87;;;15.20;99.90;;;;;;4992144;28;20706;-69
2021/07/30 02:23:41;;;;;;;21.77;20.17;;;15.20;99.90;;;;;;4992545;28;20458;-69
2021/07/30 02:26:08;;;;;;;20.50;19.10;;;15.10;99.90;;;;;;4992659;28;20838;-69
2021/07/30 02:28:35;;;;;;;20.90;19.80;;;15.10;99.90;;;;;;4992542;28;20451;-69
2021/07/30 02:31:01;;;;;;;20.43;19.13;;;15.10;99.90;;;;;;4992373;28;20451;-69
2021/07/30 02:33:29;;;;;;;21.63;20.07;;;15.10;99.90;;;;;;4992329;28;20460;-70
2021/07/30 02:35:56;;;;;;;21.30;19.87;;;15.10;99.90;;;;;;4992307;28;20813;-70
2021/07/30 02:38:23;;;;;;;19.40;18.20;;;15.10;99.90;;;;;;4992412;28;20490;-70
2021/07/30 02:40:49;;;;;;;20.40;19.10;;;15.00;99.90;;;;;;4992554;28;20455;-70
2021/07/30 02:43:16;;;;;;;21.17;19.87;;;14.90;99.90;;;;;;4991946;28;20788;-70
2021/07/30 02:45:43;;;;;;;20.83;19.43;;;15.00;99.90;;;;;;4992163;28;20508;-71
2021/07/30 02:48:10;;;;;;;21.70;20.40;;;14.90;99.90;;;;;;4992180;28;20455;-70
2021/07/30 02:50:38;;;;;;;19.73;18.47;;;14.90;99.90;;;;;;4992158;28;20513;-69
2021/07/30 02:53:04;;;;;;;20.63;19.10;;;14.90;99.90;;;;;;4992069;28;20460;-70
2021/07/30 02:55:31;;;;;;;25.53;23.40;;;14.90;99.90;;;;;;4991767;28;20958;-70
2021/07/30 02:57:58;;;;;;;21.03;19.53;;;14.90;99.90;;;;;;4991716;28;20862;-69
2021/07/30 03:00:24;;;;;;;20.97;19.77;;;15.00;99.90;;;;;;4992011;28;20458;-68
2021/07/30 03:02:51;;;;;;;21.37;20.07;;;14.90;99.90;;;;;;4991815;28;20457;-69
2021/07/30 03:05:18;;;;;;;22.00;20.23;;;14.80;99.90;;;;;;4991567;28;20973;-70
2021/07/30 03:07:46;;;;;;;22.47;20.77;;;14.80;99.90;;;;;;4989964;28;21282;-70
2021/07/30 03:10:12;;;;;;;21.30;20.00;;;14.80;99.90;;;;;;4991849;28;20497;-70
2021/07/30 03:12:39;;;;;;;20.33;19.23;;;14.80;99.90;;;;;;4991727;28;20449;-70
2021/07/30 03:15:07;;;;;;;20.03;18.73;;;14.70;99.90;;;;;;4991463;28;20943;-69
2021/07/30 03:17:33;;;;;;;21.40;20.00;;;14.70;99.90;;;;;;4991602;28;20478;-69
2021/07/30 03:20:00;;;;;;;22.43;20.80;;;14.70;99.90;;;;;;4991548;28;20513;-70
2021/07/30 03:22:27;;;;;;;21.37;20.13;;;14.70;99.90;;;;;;4991350;28;20545;-69
2021/07/30 03:24:55;;;;;;;21.73;20.03;;;14.70;99.90;;;;;;4991633;28;20450;-70
2021/07/30 03:27:21;;;;;;;21.37;20.00;;;14.70;99.90;;;;;;4991374;28;20469;-69
2021/07/30 03:29:50;;;;;;;21.57;20.07;;;14.60;99.90;;;;;;4991291;28;20451;-70
2021/07/30 03:32:17;;;;;;;20.63;19.20;;;14.60;99.90;;;;;;4991683;28;20458;-69
2021/07/30 03:34:43;;;;;;;21.20;19.80;;;14.60;99.90;;;;;;4991370;28;20447;-69
2021/07/30 03:37:10;;;;;;;21.23;19.70;;;14.60;99.90;;;;;;4991775;28;20573;-70
2021/07/30 03:39:37;;;;;;;21.40;20.07;;;14.50;99.90;;;;;;4991488;28;20493;-70
2021/07/30 03:42:05;;;;;;;21.00;19.03;;;14.50;99.90;;;;;;4991486;28;20509;-70
2021/07/30 03:44:32;;;;;;;21.97;20.30;;;14.50;99.90;;;;;;4991387;28;20451;-70
2021/07/30 03:46:59;;;;;;;20.97;19.77;;;14.50;99.90;;;;;;4991412;28;20451;-71
2021/07/30 03:49:26;;;;;;;21.20;19.80;;;14.40;99.90;;;;;;4991174;28;20443;-69
2021/07/30 03:51:52;;;;;;;21.00;19.60;;;14.40;99.90;;;;;;4991411;28;20447;-71
2021/07/30 03:54:19;;;;;;;22.20;20.60;;;14.40;99.90;;;;;;4991189;28;20455;-70
2021/07/30 03:56:46;;;;;;;22.90;21.30;;;14.40;99.90;;;;;;4990969;28;20443;-70
2021/07/30 03:59:14;;;;;;;23.43;21.40;;;14.50;99.90;;;;;;4991046;28;21060;-69
2021/07/30 04:01:47;;;;;;;23.07;21.53;;;14.50;99.90;;;;;;4991254;28;20458;-68
2021/07/30 04:04:14;;;;;;;24.50;22.70;;;14.50;99.90;;;;;;4990989;28;20459;-68
2021/07/30 04:06:40;;;;;;;23.97;22.00;;;14.60;99.90;;;;;;4991202;28;20516;-69
2021/07/30 04:09:10;;;;;;;22.40;20.90;;;14.60;99.90;;;;;;4991380;28;20446;-70
2021/07/30 04:11:37;;;;;;;24.97;22.67;;;14.60;99.90;;;;;;4991362;28;20454;-69
2021/07/30 04:14:04;;;;;;;23.03;21.57;;;14.70;99.90;;;;;;4991060;28;20455;-69
2021/07/30 04:16:33;;;;;;;23.90;21.73;;;14.70;99.90;;;;;;4991123;28;20451;-69
2021/07/30 04:18:59;;;;;;;23.23;21.63;;;14.80;99.90;;;;;;4990718;28;20487;-69
2021/07/30 04:21:26;;;;;;;22.77;21.03;;;14.80;99.90;;;;;;4990863;28;20483;-68
2021/07/30 04:23:53;;;;;;;22.67;20.40;;;14.80;99.90;;;;;;4991248;28;20462;-68
2021/07/30 04:26:19;;;;;;;23.07;21.47;;;14.80;99.90;;;;;;4991905;28;20454;-69
2021/07/30 04:28:46;;;;;;;23.30;21.60;;;14.80;99.90;;;;;;4994625;28;20477;-71
2021/07/30 04:31:13;;;;;;;22.47;20.50;;;14.80;99.90;;;;;;4994642;28;20958;-69
2021/07/30 04:33:41;;;;;;;22.97;21.43;;;14.80;99.90;;;;;;4994703;28;20473;-70
2021/07/30 04:36:14;;;;;;;23.90;21.80;;;14.80;99.90;;;;;;4994771;28;20459;-70
2021/07/30 04:38:41;;;;;;;21.80;20.40;;;14.80;99.90;;;;;;4994546;28;21052;-69
2021/07/30 04:41:08;;;;;;;23.10;21.47;;;14.80;99.90;;;;;;4994623;28;20938;-69
2021/07/30 04:43:34;;;;;;;23.90;22.13;;;14.90;99.90;;;;;;4994491;28;20463;-69
2021/07/30 04:46:01;;;;;;;25.47;23.47;;;14.90;99.90;;;;;;4994347;28;20462;-68
2021/07/30 04:48:28;;;;;;;23.30;21.57;;;15.00;99.90;;;;;;4994440;28;20451;-68
2021/07/30 04:50:56;;;;;;;22.83;21.33;;;15.40;99.90;;;;;;4994496;28;20861;-70
2021/07/30 04:53:22;;;;;;;23.93;21.87;;;15.80;99.90;;;;;;4994506;28;20513;-70
2021/07/30 04:55:49;;;;;;;21.00;19.60;;;16.10;99.90;;;;;;4994252;28;20450;-69
2021/07/30 04:58:16;;;;;;;21.40;19.43;;;16.50;99.90;;;;;;4993937;28;20549;-69
2021/07/30 05:00:42;;;;;;;22.10;20.30;;;16.70;99.90;;;;;;4994035;28;20454;-70
2021/07/30 05:03:09;;;;;;;20.80;19.50;;;16.90;99.90;;;;;;4994033;28;20458;-68
2021/07/30 05:05:36;;;;;;;20.20;19.10;;;17.00;99.90;;;;;;4993982;28;20459;-70
2021/07/30 05:08:04;;;;;;;20.80;19.30;;;17.20;99.90;;;;;;4994261;28;20455;-69
2021/07/30 05:10:31;;;;;;;19.57;18.30;;;17.50;99.90;;;;;;4994252;28;20459;-70
2021/07/30 05:12:57;;;;;;;18.37;17.27;;;17.60;99.90;;;;;;4993569;28;20500;-73
2021/07/30 05:15:24;;;;;;;19.47;18.37;;;17.60;99.90;;;;;;4994292;28;20459;-71
2021/07/30 05:17:51;;;;;;;30.30;19.80;;;17.60;99.90;;;;;;4993959;28;20875;-71
2021/07/30 05:20:18;;;;;;;19.00;17.80;;;17.60;99.90;;;;;;4993924;28;20475;-71
2021/07/30 05:22:44;;;;;;;17.70;16.63;;;17.80;99.90;;;;;;4993583;28;20498;-70
2021/07/30 05:25:13;;;;;;;18.27;17.07;;;17.90;99.90;;;;;;4993652;28;20458;-72
2021/07/30 05:27:40;;;;;;;17.40;16.07;;;18.10;99.90;;;;;;4993770;28;20505;-72
2021/07/30 05:30:07;;;;;;;17.70;16.80;;;18.30;99.90;;;;;;4993811;28;20461;-72
2021/07/30 05:32:34;;;;;;;18.60;17.07;;;18.40;99.90;;;;;;4993436;28;20498;-72
2021/07/30 05:35:01;;;;;;;18.27;17.07;;;18.70;99.90;;;;;;4993349;28;20877;-72
2021/07/30 05:37:27;;;;;;;18.70;17.40;;;19.00;99.90;;;;;;4993309;28;20453;-71
2021/07/30 05:39:54;;;;;;;20.20;18.40;;;19.40;99.90;;;;;;4993619;28;20536;-69
2021/07/30 05:42:22;;;;;;;19.00;17.80;;;19.50;99.90;;;;;;4993098;28;20455;-71
2021/07/30 05:44:49;;;;;;;17.90;16.90;;;19.80;99.90;;;;;;4993370;28;20451;-70
2021/07/30 05:47:15;;;;;;;18.00;16.73;;;20.00;99.90;;;;;;4993296;28;20461;-71
2021/07/30 05:49:42;;;;;;;19.00;17.57;;;20.00;99.90;;;;;;4993366;28;20454;-71
2021/07/30 05:52:08;;;;;;;18.27;17.17;;;19.80;99.90;;;;;;4993494;28;20458;-71
2021/07/30 05:54:35;;;;;;;18.50;17.40;;;19.90;99.90;;;;;;4993039;28;20450;-70
2021/07/30 05:57:02;;;;;;;17.80;16.57;;;19.70;99.90;;;;;;4992859;28;20829;-71
2021/07/30 05:59:30;;;;;;;18.53;17.33;;;19.70;99.90;;;;;;4992773;28;20725;-70
2021/07/30 06:01:57;;;;;;;16.87;15.90;;;19.90;99.90;;;;;;4992865;28;20451;-71
2021/07/30 06:04:23;;;;;;;17.80;16.80;;;20.00;99.90;;;;;;4992742;28;20969;-71
2021/07/30 06:06:50;;;;;;;16.87;15.90;;;20.10;99.90;;;;;;4992957;28;20505;-72
2021/07/30 06:09:18;;;;;;;17.63;16.47;;;20.40;99.90;;;;;;4992913;28;20449;-71
2021/07/30 06:11:44;;;;;;;17.77;16.80;;;20.80;99.90;;;;;;4992743;28;20935;-71
2021/07/30 06:14:11;;;;;;;17.57;16.53;;;20.80;99.90;;;;;;4992463;28;20513;-71
2021/07/30 06:16:39;;;;;;;17.53;16.27;;;20.80;99.90;;;;;;4992625;28;20822;-71
2021/07/30 06:19:06;;;;;;;18.00;16.50;;;20.80;99.90;;;;;;4992676;28;20968;-72
2021/07/30 06:21:33;;;;;;;18.07;16.87;;;21.10;99.90;;;;;;4992526;28;20486;-72
2021/07/30 06:24:00;;;;;;;16.33;15.40;;;21.40;99.90;;;;;;4992784;28;20962;-72
2021/07/30 06:26:26;;;;;;;17.73;16.63;;;21.40;99.90;;;;;;4992558;28;20459;-71
2021/07/30 06:28:53;;;;;;;17.00;15.93;;;21.70;99.90;;;;;;4992700;28;20501;-72
2021/07/30 06:31:19;;;;;;;17.50;16.60;;;22.00;99.90;;;;;;4992282;28;20455;-71
2021/07/30 06:33:47;;;;;;;16.40;14.97;;;22.10;99.90;;;;;;4991901;28;20483;-71
2021/07/30 06:36:17;;;;;;;15.77;14.93;;;22.70;99.90;;;;;;4992025;28;20828;-71
2021/07/30 06:38:44;;;;;;;17.17;16.10;;;22.90;99.90;;;;;;4991776;28;21010;-71
2021/07/30 06:41:14;;;;;;;16.47;15.40;;;22.50;99.90;;;;;;4992060;28;20814;-71
2021/07/30 06:43:40;;;;;;;15.30;14.20;;;22.30;99.90;;;;;;4992010;28;20538;-71
2021/07/30 06:46:07;;;;;;;16.17;15.27;;;22.40;99.90;;;;;;4992310;28;20465;-72
2021/07/30 06:48:34;;;;;;;15.73;14.90;;;22.40;99.90;;;;;;4991342;28;20450;-72
2021/07/30 06:51:02;;;;;;;16.00;15.20;;;22.60;99.90;;;;;;4991570;28;20455;-71
2021/07/30 06:53:29;;;;;;;14.73;13.40;;;22.70;99.90;;;;;;4991852;28;20712;-71
2021/07/30 06:55:56;;;;;;;16.10;15.03;;;22.80;99.90;;;;;;4991876;28;20549;-71
2021/07/30 06:58:22;;;;;;;18.10;16.90;;;22.80;99.90;;;;;;4991880;28;20495;-71
2021/07/30 07:00:49;;;;;;;15.60;14.60;;;22.80;99.90;;;;;;4991773;28;20505;-71
2021/07/30 07:03:16;;;;;;;16.07;15.27;;;22.70;99.90;;;;;;4991517;28;20451;-71
2021/07/30 07:05:42;;;;;;;15.83;14.73;;;22.70;99.90;;;;;;4991422;28;20513;-71
2021/07/30 07:08:12;;;;;;;15.80;14.80;;;23.10;99.90;;;;;;4991847;28;20446;-72
2021/07/30 07:10:39;;;;;;;15.90;14.90;;;23.10;99.90;;;;;;4991686;28;20538;-72
2021/07/30 07:13:05;;;;;;;16.63;15.47;;;23.00;99.90;;;;;;4991366;28;20545;-73
2021/07/30 07:15:32;;;;;;;16.30;15.50;;;23.20;99.90;;;;;;4991429;28;20454;-73
2021/07/30 07:17:59;;;;;;;16.10;15.13;;;23.70;99.90;;;;;;4991522;28;20454;-72
2021/07/30 07:20:25;;;;;;;17.20;16.20;;;23.90;99.90;;;;;;4991391;28;20553;-70
2021/07/30 07:22:52;;;;;;;17.17;16.07;;;24.10;99.90;;;;;;4991500;28;20455;-73
2021/07/30 07:25:20;;;;;;;19.13;17.70;;;24.50;99.90;;;;;;5003098;28;20507;-75
2021/07/30 07:27:47;;;;;;;17.90;16.77;;;24.50;99.90;;;;;;5011121;28;20457;-74
2021/07/30 07:30:14;;;;;;;18.23;16.90;;;24.70;99.90;;;;;;5010849;28;20427;-74
2021/07/30 07:32:40;;;;;;;17.77;16.70;;;24.90;99.70;;;;;;5011151;28;20457;-74
2021/07/30 07:35:08;;;;;;;18.97;17.73;;;25.20;99.10;;;;;;5011441;28;20449;-74
2021/07/30 07:37:34;;;;;;;17.33;16.33;;;25.10;99.70;;;;;;5011226;28;20434;-74
2021/07/30 07:40:01;;;;;;;17.80;16.87;;;25.30;99.00;;;;;;5010884;28;20490;-74
2021/07/30 07:42:29;;;;;;;18.70;17.20;;;25.80;98.40;;;;;;5010615;28;20457;-74
2021/07/30 07:44:56;;;;;;;16.70;15.73;;;26.10;97.20;;;;;;5010657;28;20460;-74
2021/07/30 07:47:23;;;;;;;17.13;16.13;;;26.20;96.90;;;;;;5011003;28;20476;-74
2021/07/30 07:49:49;;;;;;;18.97;17.57;;;26.30;96.60;;;;;;5010806;28;20434;-74
2021/07/30 07:52:16;;;;;;;17.20;16.30;;;26.00;97.10;;;;;;5010757;28;20539;-74
2021/07/30 07:54:43;;;;;;;19.40;17.23;;;26.20;96.70;;;;;;5010592;28;20460;-73
2021/07/30 07:57:09;;;;;;;17.17;16.07;;;26.30;96.60;;;;;;5010561;28;20450;-74
2021/07/30 07:59:38;;;;;;;16.00;15.10;;;26.30;96.50;;;;;;5000709;28;20485;-74
2021/07/30 08:02:06;;;;;;;16.30;15.37;;;26.60;95.90;;;;;;4998381;28;20454;-74
2021/07/30 08:04:33;;;;;;;16.80;15.80;;;26.80;95.70;;;;;;5014590;28;20464;-74
2021/07/30 08:07:02;;;;;;;17.23;16.33;;;27.20;95.30;;;;;;5004032;28;20481;-75
2021/07/30 08:09:29;;;;;;;18.10;16.97;;;27.80;94.10;;;;;;4994883;28;20455;-72
2021/07/30 08:11:56;;;;;;;17.83;16.93;;;27.80;93.50;;;;;;4994795;28;20450;-72
2021/07/30 08:14:23;;;;;;;16.83;15.60;;;27.70;93.50;;;;;;4996151;28;20504;-74
2021/07/30 08:16:51;;;;;;;17.70;16.87;;;28.00;93.70;;;;;;5014249;28;20450;-74
2021/07/30 08:19:18;;;;;;;17.30;16.47;;;28.90;91.70;;;;;;5014041;28;20493;-73
2021/07/30 08:21:45;;;;;;;16.50;15.60;;;28.90;91.70;;;;;;5014074;28;20489;-73
2021/07/30 08:24:12;;;;;;;17.10;16.00;;;29.00;91.40;;;;;;5014179;28;20460;-73
2021/07/30 08:26:39;;;;;;;17.60;16.60;;;29.00;91.50;;;;;;5014129;28;20477;-73
2021/07/30 08:29:06;;;;;;;17.77;16.80;;;29.50;90.70;;;;;;5014235;28;20457;-73
2021/07/30 08:31:32;;;;;;;17.03;16.20;;;28.70;91.30;;;;;;5012165;28;20454;-74
2021/07/30 08:34:00;;;;;;;18.27;17.10;;;28.40;91.80;;;;;;4994335;28;20509;-72
2021/07/30 08:36:27;;;;;;;18.17;17.37;;;28.60;91.50;;;;;;4994336;28;20466;-72
2021/07/30 08:38:55;;;;;;;17.00;16.30;;;28.40;91.70;;;;;;4994398;28;20455;-73
2021/07/30 08:41:23;;;;;;;16.97;16.17;;;28.40;91.90;;;;;;4994346;28;20454;-73
2021/07/30 08:43:54;;;;;;;18.40;17.43;;;28.40;91.90;;;;;;4994110;28;20462;-73
2021/07/30 08:46:24;;;;;;;17.27;16.37;;;28.80;91.20;;;;;;4994300;28;21112;-73
2021/07/30 08:48:51;;;;;;;17.73;16.70;;;29.40;90.30;;;;;;4994507;28;20509;-73
2021/07/30 08:51:20;;;;;;;16.27;15.30;;;30.10;89.10;;;;;;4994062;28;20455;-73
2021/07/30 08:53:47;;;;;;;16.77;15.97;;;30.20;86.90;;;;;;4993949;28;20558;-73
2021/07/30 08:56:15;;;;;;;17.00;16.20;;;30.60;86.70;;;;;;4994080;28;20455;-74
2021/07/30 08:58:42;;;;;;;17.77;16.67;;;30.20;87.00;;;;;;4995740;28;20465;-73
2021/07/30 09:01:10;;;;;;;16.27;15.47;;;30.80;84.80;;;;;;5013353;28;20485;-73
2021/07/30 09:03:41;;;;;;;17.37;16.23;;;31.30;84.00;;;;;;5013514;28;20548;-73
2021/07/30 09:06:17;;;;;;;16.90;16.13;;;32.10;79.90;;;;;;5013588;28;20449;-73
2021/07/30 09:08:45;;;;;;;17.37;16.33;;;32.40;79.10;;;;;;5013512;28;20553;-74
2021/07/30 09:11:28;;;;;;;17.70;16.40;;;32.90;75.60;;;;;;5013310;28;20457;-74
2021/07/30 09:13:55;;;;;;;16.67;15.97;;;33.40;74.50;;;;;;5013007;28;20453;-73
2021/07/30 09:16:21;;;;;;;17.20;16.40;;;34.10;72.00;;;;;;5013293;28;20924;-73
2021/07/30 09:18:48;;;;;;;17.87;17.17;;;33.90;72.00;;;;;;5012839;28;20489;-73
2021/07/30 09:21:28;;;;;;;18.20;17.40;;;34.00;70.10;;;;;;5012200;28;20502;-73
2021/07/30 09:23:58;;;;;;;18.30;17.30;;;34.30;68.30;;;;;;5012671;28;20450;-73
2021/07/30 09:26:41;;;;;;;17.77;16.93;;;34.70;66.60;;;;;;5010200;28;20512;-73
2021/07/30 09:29:10;;;;;;;18.10;17.30;;;35.10;65.30;;;;;;5012754;28;20449;-73
2021/07/30 09:31:42;;;;;;;17.93;17.13;;;36.00;63.20;;;;;;5011705;28;20454;-72
2021/07/30 09:34:21;;;;;;;16.90;16.20;;;36.50;60.00;;;;;;5012890;28;20860;-73
2021/07/30 09:36:50;;;;;;;18.43;17.60;;;35.80;59.50;;;;;;5012578;28;20453;-72
2021/07/30 09:39:19;;;;;;;18.17;17.37;;;35.30;59.90;;;;;;5012484;28;20457;-73
2021/07/30 09:42:00;;;;;;;18.73;17.63;;;35.60;59.00;;;;;;5012450;28;20450;-73
2021/07/30 09:44:27;;;;;;;19.87;18.80;;;36.20;57.70;;;;;;5012532;28;20457;-72
2021/07/30 09:47:19;;;;;;;17.90;17.10;;;36.10;58.90;;;;;;5012432;28;20489;-73
2021/07/30 09:49:49;;;;;;;18.07;17.33;;;37.10;56.60;;;;;;5006805;28;20485;-72
2021/07/30 09:52:17;;;;;;;18.43;17.53;;;37.10;56.30;;;;;;5012409;28;20452;-72
2021/07/30 09:54:47;;;;;;;19.67;18.87;;;36.90;55.00;;;;;;5012334;28;20950;-71
2021/07/30 09:57:15;;;;;;;18.83;18.03;;;36.30;55.40;;;;;;5012627;28;20457;-72
2021/07/30 09:59:44;;;;;;;19.57;18.47;;;36.70;55.90;;;;;;5011963;28;21008;-72
2021/07/30 10:02:16;;;;;;;19.87;18.97;;;36.40;55.50;;;;;;5012143;28;20450;-73
2021/07/30 10:04:48;;;;;;;19.90;19.10;;;36.90;55.60;;;;;;5011839;28;20449;-72
2021/07/30 10:07:17;;;;;;;18.40;17.70;;;36.50;55.40;;;;;;5011935;28;20919;-72
2021/07/30 10:09:50;;;;;;;19.03;18.23;;;36.60;55.40;;;;;;5011725;28;20896;-72
2021/07/30 10:12:17;;;;;;;19.17;18.37;;;36.50;55.50;;;;;;5011678;28;20465;-72
2021/07/30 10:14:46;;;;;;;20.20;19.33;;;36.90;55.40;;;;;;5011589;28;20869;-73
2021/07/30 10:17:15;;;;;;;20.57;19.63;;;36.80;54.70;;;;;;5011747;28;20489;-73
2021/07/30 10:19:43;;;;;;;21.23;20.23;;;36.90;54.50;;;;;;5011685;28;20494;-72
2021/07/30 10:22:13;;;;;;;20.30;19.20;;;37.00;55.40;;;;;;5011634;28;20477;-72
2021/07/30 10:24:45;;;;;;;20.70;19.77;;;37.10;54.90;;;;;;5011061;28;20450;-73
2021/07/30 10:27:15;;;;;;;19.27;18.43;;;37.10;53.90;;;;;;5011676;28;20457;-73
2021/07/30 10:30:06;;;;;;;20.23;19.23;;;36.20;54.50;;;;;;5011455;28;20872;-72
2021/07/30 10:32:44;;;;;;;21.37;20.37;;;35.80;56.80;;;;;;5006399;28;20997;-72
2021/07/30 10:35:12;;;;;;;19.60;18.70;;;35.00;58.20;;;;;;5011489;28;20541;-72
2021/07/30 10:37:41;;;;;;;19.23;18.43;;;35.00;58.10;;;;;;5011475;28;20453;-72
2021/07/30 10:40:16;;;;;;;20.90;19.80;;;34.90;58.90;;;;;;5011553;28;20495;-73
2021/07/30 10:43:07;;;;;;;18.60;17.80;;;34.40;59.60;;;;;;5011299;28;20868;-73
2021/07/30 10:45:35;;;;;;;21.00;20.03;;;34.00;61.20;;;;;;5011563;28;20458;-73
2021/07/30 10:48:29;;;;;;;19.80;18.90;;;33.50;62.00;;;;;;5011320;28;20457;-73
2021/07/30 10:50:59;;;;;;;19.60;18.70;;;33.30;62.20;;;;;;5006214;28;20957;-73
2021/07/30 10:53:46;;;;;;;19.00;18.20;;;33.60;61.80;;;;;;5011063;28;20456;-73
2021/07/30 10:56:46;;;;;;;19.90;19.00;;;34.10;61.40;;;;;;5010918;28;20503;-73
2021/07/30 10:59:14;;;;;;;19.80;18.90;;;34.20;62.30;;;;;;5011019;28;20452;-73
2021/07/30 11:01:56;;;;;;;19.40;18.57;;;34.20;61.90;;;;;;5010915;28;20496;-73
2021/07/30 11:04:23;;;;;;;20.53;19.63;;;33.80;62.60;;;;;;5011189;28;20453;-73
2021/07/30 11:07:02;;;;;;;19.40;18.40;;;33.70;62.80;;;;;;5011177;28;20472;-74
2021/07/30 11:09:39;;;;;;;20.00;18.80;;;33.50;62.60;;;;;;5011055;28;20456;-73
2021/07/30 11:12:12;;;;;;;20.00;19.10;;;33.10;63.50;;;;;;5011075;28;20453;-73
2021/07/30 11:14:45;;;;;;;19.70;18.80;;;32.80;64.60;;;;;;5011104;28;20450;-73
2021/07/30 11:17:13;;;;;;;20.30;19.30;;;32.50;65.50;;;;;;5010922;28;20485;-73
2021/07/30 11:19:41;;;;;;;19.10;18.20;;;32.40;67.40;;;;;;5010770;28;20481;-73
2021/07/30 11:22:09;;;;;;;19.10;18.10;;;32.70;66.20;;;;;;5010938;28;20492;-73
2021/07/30 11:24:40;;;;;;;20.50;19.53;;;33.10;65.20;;;;;;5010979;28;20511;-73
2021/07/30 11:27:08;;;;;;;19.27;18.37;;;33.20;64.40;;;;;;5010797;28;20456;-73
2021/07/30 11:29:35;;;;;;;19.87;18.77;;;32.00;65.20;;;;;;5010783;28;20450;-73
2021/07/30 11:32:05;;;;;;;18.50;17.20;;;31.00;66.80;;;;;;5010669;28;20454;-74
2021/07/30 11:34:33;;;;;;;19.60;18.30;;;30.50;69.40;;;;;;5010759;28;20512;-72
2021/07/30 11:37:01;;;;;;;18.93;18.03;;;30.60;71.00;;;;;;5010590;28;20461;-72
2021/07/30 11:39:39;;;;;;;19.23;17.97;;;31.30;68.60;;;;;;5010490;28;20450;-71
2021/07/30 11:42:07;;;;;;;18.77;17.87;;;31.80;67.80;;;;;;5010725;28;20489;-72
2021/07/30 11:44:44;;;;;;;18.00;17.20;;;32.00;67.10;;;;;;5010633;28;20564;-72
2021/07/30 11:47:13;;;;;;;18.83;17.97;;;31.30;68.10;;;;;;5010598;28;20449;-72
2021/07/30 11:49:41;;;;;;;19.17;18.03;;;31.80;67.30;;;;;;5010555;28;20457;-72
2021/07/30 11:52:12;;;;;;;18.57;17.63;;;32.70;66.20;;;;;;5010599;28;20449;-72
2021/07/30 11:54:39;;;;;;;18.73;17.80;;;32.90;64.60;;;;;;5010530;28;20453;-72
2021/07/30 11:57:06;;;;;;;18.73;17.83;;;32.40;66.00;;;;;;5010651;28;20450;-72
2021/07/30 11:59:47;;;;;;;18.10;17.20;;;31.80;67.10;;;;;;5010534;28;20461;-73
2021/07/30 12:02:16;;;;;;;18.60;17.50;;;31.90;67.60;;;;;;5010251;28;20491;-71
2021/07/30 12:05:00;;;;;;;18.27;17.37;;;32.70;67.30;;;;;;5010164;28;20458;-71
2021/07/30 12:07:31;;;;;;;19.10;18.30;;;34.60;62.70;;;;;;5010143;28;20445;-71
2021/07/30 12:09:59;;;;;;;19.23;18.10;;;36.10;59.20;;;;;;5010069;28;20458;-72
2021/07/30 12:12:28;;;;;;;18.87;18.07;;;36.90;56.10;;;;;;5010150;28;20512;-72
2021/07/30 12:14:55;;;;;;;18.77;17.93;;;37.60;55.10;;;;;;5010261;28;20489;-72
2021/07/30 12:17:24;;;;;;;18.60;17.80;;;37.20;56.00;;;;;;5010499;28;20500;-72
2021/07/30 12:19:58;;;;;;;20.10;19.07;;;36.60;55.80;;;;;;5010286;28;20466;-71
2021/07/30 12:22:42;;;;;;;19.60;18.70;;;36.20;56.70;;;;;;5010134;28;20472;-71
2021/07/30 12:25:16;;;;;;;20.23;19.20;;;36.30;57.30;;;;;;5010362;28;20794;-72
2021/07/30 12:27:42;;;;;;;19.13;18.33;;;36.70;56.80;;;;;;5010258;28;20552;-71
2021/07/30 12:30:25;;;;;;;20.67;19.43;;;35.90;57.50;;;;;;5010276;28;20453;-72
2021/07/30 12:32:53;;;;;;;20.97;19.80;;;35.40;57.60;;;;;;5010260;28;20460;-72
2021/07/30 12:35:31;;;;;;;20.37;19.23;;;35.40;58.40;;;;;;5009960;28;20458;-72
2021/07/30 12:38:04;;;;;;;19.83;18.63;;;35.30;57.90;;;;;;5008181;28;20965;-71